sensor_id;sensor_type;location;lat;lon;timestamp;P1;durP1;ratioP1;P2;durP2;ratioP2
36415;SDS011;22447;44.530;18.620;2023-07-13T00:02:16;19.60;;;15.02;;
36415;SDS011;22447;44.530;18.620;2023-07-13T00:04:42;17.73;;;14.23;;
36415;SDS011;22447;44.530;18.620;2023-07-13T00:07:08;18.70;;;14.55;;
36415;SDS011;22447;44.530;18.620;2023-07-13T00:09:34;22.27;;;15.15;;
36415;SDS011;22447;44.530;18.620;2023-07-13T00:12:01;22.25;;;14.35;;
36415;SDS011;22447;44.530;18.620;2023-07-13T00:14:28;22.33;;;16.13;;
36415;SDS011;22447;44.530;18.620;2023-07-13T00:16:54;21.80;;;15.15;;
36415;SDS011;22447;44.530;18.620;2023-07-13T00:19:21;21.45;;;15.77;;
36415;SDS011;22447;44.530;18.620;2023-07-13T00:21:47;22.52;;;15.52;;
36415;SDS011;22447;44.530;18.620;2023-07-13T00:24:14;22.67;;;15.60;;
36415;SDS011;22447;44.530;18.620;2023-07-13T00:26:47;19.27;;;15.07;;
36415;SDS011;22447;44.530;18.620;2023-07-13T00:29:13;19.67;;;14.52;;
36415;SDS011;22447;44.530;18.620;2023-07-13T00:31:39;18.20;;;15.35;;
36415;SDS011;22447;44.530;18.620;2023-07-13T00:34:05;22.60;;;15.52;;
36415;SDS011;22447;44.530;18.620;2023-07-13T00:36:31;19.75;;;15.25;;
36415;SDS011;22447;44.530;18.620;2023-07-13T00:38:57;19.33;;;15.00;;
36415;SDS011;22447;44.530;18.620;2023-07-13T00:41:23;20.23;;;14.93;;
36415;SDS011;22447;44.530;18.620;2023-07-13T00:43:49;20.50;;;15.27;;
36415;SDS011;22447;44.530;18.620;2023-07-13T00:46:21;19.13;;;14.20;;
36415;SDS011;22447;44.530;18.620;2023-07-13T00:48:51;22.77;;;16.50;;
36415;SDS011;22447;44.530;18.620;2023-07-13T00:51:22;21.88;;;14.25;;
36415;SDS011;22447;44.530;18.620;2023-07-13T00:53:53;24.50;;;16.13;;
36415;SDS011;22447;44.530;18.620;2023-07-13T00:56:21;23.15;;;14.65;;
36415;SDS011;22447;44.530;18.620;2023-07-13T00:58:48;20.63;;;16.02;;
36415;SDS011;22447;44.530;18.620;2023-07-13T01:01:15;22.17;;;15.10;;
36415;SDS011;22447;44.530;18.620;2023-07-13T01:03:41;23.80;;;16.40;;
36415;SDS011;22447;44.530;18.620;2023-07-13T01:06:07;22.40;;;15.75;;
36415;SDS011;22447;44.530;18.620;2023-07-13T01:08:33;19.27;;;15.77;;
36415;SDS011;22447;44.530;18.620;2023-07-13T01:10:59;24.85;;;16.77;;
36415;SDS011;22447;44.530;18.620;2023-07-13T01:13:25;20.27;;;15.68;;
36415;SDS011;22447;44.530;18.620;2023-07-13T01:15:51;19.23;;;15.57;;
36415;SDS011;22447;44.530;18.620;2023-07-13T01:18:23;24.63;;;15.73;;
36415;SDS011;22447;44.530;18.620;2023-07-13T01:20:57;19.92;;;14.98;;
36415;SDS011;22447;44.530;18.620;2023-07-13T01:23:25;22.70;;;15.55;;
36415;SDS011;22447;44.530;18.620;2023-07-13T01:25:54;22.50;;;14.93;;
36415;SDS011;22447;44.530;18.620;2023-07-13T01:28:21;22.20;;;15.98;;
36415;SDS011;22447;44.530;18.620;2023-07-13T01:30:48;22.42;;;15.07;;
36415;SDS011;22447;44.530;18.620;2023-07-13T01:33:15;20.40;;;15.57;;
36415;SDS011;22447;44.530;18.620;2023-07-13T01:35:42;20.55;;;15.10;;
36415;SDS011;22447;44.530;18.620;2023-07-13T01:38:10;22.10;;;14.82;;
36415;SDS011;22447;44.530;18.620;2023-07-13T01:40:37;22.38;;;16.77;;
36415;SDS011;22447;44.530;18.620;2023-07-13T01:43:03;19.38;;;14.85;;
36415;SDS011;22447;44.530;18.620;2023-07-13T01:45:29;22.25;;;14.68;;
36415;SDS011;22447;44.530;18.620;2023-07-13T01:47:56;24.08;;;14.60;;
36415;SDS011;22447;44.530;18.620;2023-07-13T01:50:23;16.42;;;14.23;;
36415;SDS011;22447;44.530;18.620;2023-07-13T01:52:49;19.35;;;15.25;;
36415;SDS011;22447;44.530;18.620;2023-07-13T01:55:15;17.95;;;14.18;;
36415;SDS011;22447;44.530;18.620;2023-07-13T01:57:41;19.90;;;13.40;;
36415;SDS011;22447;44.530;18.620;2023-07-13T02:00:08;15.88;;;13.48;;
36415;SDS011;22447;44.530;18.620;2023-07-13T02:02:41;22.65;;;14.02;;
36415;SDS011;22447;44.530;18.620;2023-07-13T02:05:08;18.67;;;14.55;;
36415;SDS011;22447;44.530;18.620;2023-07-13T02:07:35;17.73;;;13.45;;
36415;SDS011;22447;44.530;18.620;2023-07-13T02:10:02;18.70;;;13.15;;
36415;SDS011;22447;44.530;18.620;2023-07-13T02:12:29;21.80;;;13.30;;
36415;SDS011;22447;44.530;18.620;2023-07-13T02:14:55;18.90;;;13.10;;
36415;SDS011;22447;44.530;18.620;2023-07-13T02:17:21;17.13;;;12.75;;
36415;SDS011;22447;44.530;18.620;2023-07-13T02:19:47;17.73;;;13.25;;
36415;SDS011;22447;44.530;18.620;2023-07-13T02:22:12;18.10;;;13.25;;
36415;SDS011;22447;44.530;18.620;2023-07-13T02:24:39;16.80;;;12.98;;
36415;SDS011;22447;44.530;18.620;2023-07-13T02:27:05;17.77;;;12.50;;
36415;SDS011;22447;44.530;18.620;2023-07-13T02:29:31;19.33;;;13.60;;
36415;SDS011;22447;44.530;18.620;2023-07-13T02:31:57;19.10;;;13.25;;
36415;SDS011;22447;44.530;18.620;2023-07-13T02:34:23;20.35;;;13.55;;
36415;SDS011;22447;44.530;18.620;2023-07-13T02:36:49;17.48;;;12.63;;
36415;SDS011;22447;44.530;18.620;2023-07-13T02:39:14;18.95;;;13.32;;
36415;SDS011;22447;44.530;18.620;2023-07-13T02:41:41;20.85;;;13.32;;
36415;SDS011;22447;44.530;18.620;2023-07-13T02:44:06;16.55;;;12.75;;
36415;SDS011;22447;44.530;18.620;2023-07-13T02:46:34;20.45;;;12.98;;
36415;SDS011;22447;44.530;18.620;2023-07-13T02:49:02;17.50;;;13.05;;
36415;SDS011;22447;44.530;18.620;2023-07-13T02:51:28;18.50;;;12.57;;
36415;SDS011;22447;44.530;18.620;2023-07-13T02:53:55;20.23;;;12.65;;
36415;SDS011;22447;44.530;18.620;2023-07-13T02:56:25;18.73;;;12.80;;
36415;SDS011;22447;44.530;18.620;2023-07-13T02:58:53;19.90;;;13.77;;
36415;SDS011;22447;44.530;18.620;2023-07-13T03:01:20;19.45;;;12.80;;
36415;SDS011;22447;44.530;18.620;2023-07-13T03:03:47;16.02;;;12.60;;
36415;SDS011;22447;44.530;18.620;2023-07-13T03:06:15;16.30;;;11.98;;
36415;SDS011;22447;44.530;18.620;2023-07-13T03:08:46;17.75;;;12.70;;
36415;SDS011;22447;44.530;18.620;2023-07-13T03:11:16;17.55;;;12.10;;
36415;SDS011;22447;44.530;18.620;2023-07-13T03:13:46;17.70;;;12.25;;
36415;SDS011;22447;44.530;18.620;2023-07-13T03:16:13;16.15;;;11.98;;
36415;SDS011;22447;44.530;18.620;2023-07-13T03:18:46;19.45;;;12.52;;
36415;SDS011;22447;44.530;18.620;2023-07-13T03:21:12;24.35;;;12.75;;
36415;SDS011;22447;44.530;18.620;2023-07-13T03:23:39;21.17;;;13.38;;
36415;SDS011;22447;44.530;18.620;2023-07-13T03:26:07;19.10;;;12.30;;
36415;SDS011;22447;44.530;18.620;2023-07-13T03:28:39;16.13;;;11.90;;
36415;SDS011;22447;44.530;18.620;2023-07-13T03:31:08;19.10;;;12.00;;
36415;SDS011;22447;44.530;18.620;2023-07-13T03:33:36;18.20;;;12.65;;
36415;SDS011;22447;44.530;18.620;2023-07-13T03:36:04;14.65;;;11.05;;
36415;SDS011;22447;44.530;18.620;2023-07-13T03:38:31;18.40;;;11.95;;
36415;SDS011;22447;44.530;18.620;2023-07-13T03:40:59;16.02;;;11.00;;
36415;SDS011;22447;44.530;18.620;2023-07-13T03:43:29;13.60;;;10.88;;
36415;SDS011;22447;44.530;18.620;2023-07-13T03:45:55;16.98;;;11.00;;
36415;SDS011;22447;44.530;18.620;2023-07-13T03:48:21;15.85;;;11.50;;
36415;SDS011;22447;44.530;18.620;2023-07-13T03:50:47;17.08;;;11.20;;
36415;SDS011;22447;44.530;18.620;2023-07-13T03:53:15;16.20;;;11.00;;
36415;SDS011;22447;44.530;18.620;2023-07-13T03:55:41;16.63;;;11.48;;
36415;SDS011;22447;44.530;18.620;2023-07-13T03:58:24;17.55;;;10.65;;
36415;SDS011;22447;44.530;18.620;2023-07-13T04:01:08;17.17;;;10.90;;
36415;SDS011;22447;44.530;18.620;2023-07-13T04:03:36;18.63;;;11.25;;
36415;SDS011;22447;44.530;18.620;2023-07-13T04:06:03;17.92;;;11.30;;
36415;SDS011;22447;44.530;18.620;2023-07-13T04:08:34;20.77;;;12.02;;
36415;SDS011;22447;44.530;18.620;2023-07-13T04:11:01;18.30;;;11.70;;
36415;SDS011;22447;44.530;18.620;2023-07-13T04:13:28;24.17;;;11.88;;
36415;SDS011;22447;44.530;18.620;2023-07-13T04:15:54;19.85;;;11.65;;
36415;SDS011;22447;44.530;18.620;2023-07-13T04:18:20;18.45;;;11.75;;
36415;SDS011;22447;44.530;18.620;2023-07-13T04:20:47;16.15;;;11.40;;
36415;SDS011;22447;44.530;18.620;2023-07-13T04:23:14;16.45;;;11.35;;
36415;SDS011;22447;44.530;18.620;2023-07-13T04:25:45;17.10;;;10.60;;
36415;SDS011;22447;44.530;18.620;2023-07-13T04:28:11;13.57;;;10.52;;
36415;SDS011;22447;44.530;18.620;2023-07-13T04:30:37;18.38;;;10.18;;
36415;SDS011;22447;44.530;18.620;2023-07-13T04:33:03;18.95;;;11.00;;
36415;SDS011;22447;44.530;18.620;2023-07-13T04:35:29;16.17;;;10.57;;
36415;SDS011;22447;44.530;18.620;2023-07-13T04:37:56;20.80;;;11.57;;
36415;SDS011;22447;44.530;18.620;2023-07-13T04:40:22;20.98;;;10.95;;
36415;SDS011;22447;44.530;18.620;2023-07-13T04:42:48;17.42;;;10.23;;
36415;SDS011;22447;44.530;18.620;2023-07-13T04:45:14;18.30;;;10.70;;
36415;SDS011;22447;44.530;18.620;2023-07-13T04:47:40;14.07;;;9.13;;
36415;SDS011;22447;44.530;18.620;2023-07-13T04:50:07;17.48;;;9.88;;
36415;SDS011;22447;44.530;18.620;2023-07-13T04:52:34;12.93;;;9.70;;
36415;SDS011;22447;44.530;18.620;2023-07-13T04:55:00;16.95;;;10.63;;
36415;SDS011;22447;44.530;18.620;2023-07-13T04:57:26;15.65;;;10.95;;
36415;SDS011;22447;44.530;18.620;2023-07-13T04:59:53;16.17;;;10.23;;
36415;SDS011;22447;44.530;18.620;2023-07-13T05:02:20;14.73;;;10.27;;
36415;SDS011;22447;44.530;18.620;2023-07-13T05:04:47;17.17;;;9.85;;
36415;SDS011;22447;44.530;18.620;2023-07-13T05:07:13;14.98;;;9.32;;
36415;SDS011;22447;44.530;18.620;2023-07-13T05:09:39;21.30;;;8.88;;
36415;SDS011;22447;44.530;18.620;2023-07-13T05:12:06;15.30;;;8.98;;
36415;SDS011;22447;44.530;18.620;2023-07-13T05:14:33;20.00;;;9.52;;
36415;SDS011;22447;44.530;18.620;2023-07-13T05:16:59;24.60;;;8.40;;
36415;SDS011;22447;44.530;18.620;2023-07-13T05:19:25;22.65;;;9.30;;
36415;SDS011;22447;44.530;18.620;2023-07-13T05:21:51;17.98;;;8.65;;
36415;SDS011;22447;44.530;18.620;2023-07-13T05:24:17;18.52;;;10.02;;
36415;SDS011;22447;44.530;18.620;2023-07-13T05:26:43;23.02;;;10.88;;
36415;SDS011;22447;44.530;18.620;2023-07-13T05:29:09;26.98;;;10.00;;
36415;SDS011;22447;44.530;18.620;2023-07-13T05:31:36;24.77;;;10.70;;
36415;SDS011;22447;44.530;18.620;2023-07-13T05:34:02;22.55;;;9.80;;
36415;SDS011;22447;44.530;18.620;2023-07-13T05:36:28;22.88;;;9.30;;
36415;SDS011;22447;44.530;18.620;2023-07-13T05:38:54;18.83;;;9.00;;
36415;SDS011;22447;44.530;18.620;2023-07-13T05:41:20;27.73;;;11.35;;
36415;SDS011;22447;44.530;18.620;2023-07-13T05:43:46;21.13;;;9.13;;
36415;SDS011;22447;44.530;18.620;2023-07-13T05:46:12;20.05;;;8.77;;
36415;SDS011;22447;44.530;18.620;2023-07-13T05:48:37;26.80;;;10.48;;
36415;SDS011;22447;44.530;18.620;2023-07-13T05:51:03;17.83;;;9.68;;
36415;SDS011;22447;44.530;18.620;2023-07-13T05:53:29;22.65;;;9.93;;
36415;SDS011;22447;44.530;18.620;2023-07-13T05:55:55;21.42;;;9.02;;
36415;SDS011;22447;44.530;18.620;2023-07-13T05:58:21;19.10;;;9.27;;
36415;SDS011;22447;44.530;18.620;2023-07-13T06:00:47;15.32;;;6.90;;
36415;SDS011;22447;44.530;18.620;2023-07-13T06:03:14;17.00;;;8.00;;
36415;SDS011;22447;44.530;18.620;2023-07-13T06:05:41;27.98;;;8.20;;
36415;SDS011;22447;44.530;18.620;2023-07-13T06:08:07;25.65;;;7.75;;
36415;SDS011;22447;44.530;18.620;2023-07-13T06:10:34;17.55;;;7.20;;
36415;SDS011;22447;44.530;18.620;2023-07-13T06:13:01;23.42;;;8.75;;
36415;SDS011;22447;44.530;18.620;2023-07-13T06:15:30;28.87;;;9.27;;
36415;SDS011;22447;44.530;18.620;2023-07-13T06:18:01;24.75;;;9.07;;
36415;SDS011;22447;44.530;18.620;2023-07-13T06:20:28;27.45;;;8.85;;
36415;SDS011;22447;44.530;18.620;2023-07-13T06:22:55;32.47;;;9.60;;
36415;SDS011;22447;44.530;18.620;2023-07-13T06:25:23;22.17;;;7.32;;
36415;SDS011;22447;44.530;18.620;2023-07-13T06:27:51;15.07;;;6.85;;
36415;SDS011;22447;44.530;18.620;2023-07-13T06:30:17;15.82;;;6.90;;
36415;SDS011;22447;44.530;18.620;2023-07-13T06:32:43;17.90;;;7.32;;
36415;SDS011;22447;44.530;18.620;2023-07-13T06:35:08;31.15;;;8.48;;
36415;SDS011;22447;44.530;18.620;2023-07-13T06:37:37;23.35;;;8.57;;
36415;SDS011;22447;44.530;18.620;2023-07-13T06:40:07;21.88;;;8.35;;
36415;SDS011;22447;44.530;18.620;2023-07-13T06:42:39;24.17;;;8.50;;
36415;SDS011;22447;44.530;18.620;2023-07-13T06:45:05;18.90;;;8.45;;
36415;SDS011;22447;44.530;18.620;2023-07-13T06:47:31;12.15;;;7.38;;
36415;SDS011;22447;44.530;18.620;2023-07-13T06:49:57;16.83;;;7.65;;
36415;SDS011;22447;44.530;18.620;2023-07-13T06:52:23;41.97;;;9.60;;
36415;SDS011;22447;44.530;18.620;2023-07-13T06:54:49;18.38;;;7.38;;
36415;SDS011;22447;44.530;18.620;2023-07-13T06:57:18;19.50;;;8.18;;
36415;SDS011;22447;44.530;18.620;2023-07-13T06:59:47;16.38;;;7.32;;
36415;SDS011;22447;44.530;18.620;2023-07-13T07:02:13;17.05;;;8.13;;
36415;SDS011;22447;44.530;18.620;2023-07-13T07:04:39;16.95;;;6.82;;
36415;SDS011;22447;44.530;18.620;2023-07-13T07:07:05;23.92;;;7.72;;
36415;SDS011;22447;44.530;18.620;2023-07-13T07:09:31;19.98;;;8.43;;
36415;SDS011;22447;44.530;18.620;2023-07-13T07:11:57;24.33;;;7.40;;
36415;SDS011;22447;44.530;18.620;2023-07-13T07:14:23;18.55;;;7.38;;
36415;SDS011;22447;44.530;18.620;2023-07-13T07:16:49;25.75;;;7.53;;
36415;SDS011;22447;44.530;18.620;2023-07-13T07:19:15;21.38;;;7.03;;
36415;SDS011;22447;44.530;18.620;2023-07-13T07:21:41;13.65;;;6.47;;
36415;SDS011;22447;44.530;18.620;2023-07-13T07:24:07;16.35;;;6.72;;
36415;SDS011;22447;44.530;18.620;2023-07-13T07:26:33;9.75;;;5.55;;
36415;SDS011;22447;44.530;18.620;2023-07-13T07:29:00;14.30;;;7.45;;
36415;SDS011;22447;44.530;18.620;2023-07-13T07:31:26;14.55;;;7.40;;
36415;SDS011;22447;44.530;18.620;2023-07-13T07:33:51;25.17;;;7.88;;
36415;SDS011;22447;44.530;18.620;2023-07-13T07:36:17;22.73;;;8.13;;
36415;SDS011;22447;44.530;18.620;2023-07-13T07:38:43;30.13;;;8.82;;
36415;SDS011;22447;44.530;18.620;2023-07-13T07:41:09;22.45;;;7.32;;
36415;SDS011;22447;44.530;18.620;2023-07-13T07:43:36;18.00;;;7.22;;
36415;SDS011;22447;44.530;18.620;2023-07-13T07:46:02;13.30;;;6.22;;
36415;SDS011;22447;44.530;18.620;2023-07-13T07:48:28;19.88;;;8.55;;
36415;SDS011;22447;44.530;18.620;2023-07-13T07:50:55;23.08;;;9.95;;
36415;SDS011;22447;44.530;18.620;2023-07-13T07:53:25;21.77;;;9.13;;
36415;SDS011;22447;44.530;18.620;2023-07-13T07:55:51;25.88;;;10.25;;
36415;SDS011;22447;44.530;18.620;2023-07-13T07:58:17;15.50;;;8.18;;
36415;SDS011;22447;44.530;18.620;2023-07-13T08:00:43;18.33;;;8.95;;
36415;SDS011;22447;44.530;18.620;2023-07-13T08:03:09;17.77;;;9.20;;
36415;SDS011;22447;44.530;18.620;2023-07-13T08:05:37;17.55;;;9.57;;
36415;SDS011;22447;44.530;18.620;2023-07-13T08:08:03;23.25;;;9.82;;
36415;SDS011;22447;44.530;18.620;2023-07-13T08:10:29;34.17;;;10.77;;
36415;SDS011;22447;44.530;18.620;2023-07-13T08:12:55;18.17;;;8.18;;
36415;SDS011;22447;44.530;18.620;2023-07-13T08:15:21;22.83;;;9.70;;
36415;SDS011;22447;44.530;18.620;2023-07-13T08:17:48;18.20;;;8.48;;
36415;SDS011;22447;44.530;18.620;2023-07-13T08:20:16;18.77;;;8.73;;
36415;SDS011;22447;44.530;18.620;2023-07-13T08:22:42;18.42;;;8.43;;
36415;SDS011;22447;44.530;18.620;2023-07-13T08:25:08;20.05;;;8.85;;
36415;SDS011;22447;44.530;18.620;2023-07-13T08:27:34;15.18;;;7.32;;
36415;SDS011;22447;44.530;18.620;2023-07-13T08:30:00;17.23;;;8.02;;
36415;SDS011;22447;44.530;18.620;2023-07-13T08:32:26;20.58;;;7.90;;
36415;SDS011;22447;44.530;18.620;2023-07-13T08:34:52;12.35;;;7.72;;
36415;SDS011;22447;44.530;18.620;2023-07-13T08:37:19;19.52;;;8.35;;
36415;SDS011;22447;44.530;18.620;2023-07-13T08:39:45;14.93;;;8.43;;
36415;SDS011;22447;44.530;18.620;2023-07-13T08:42:16;25.17;;;8.45;;
36415;SDS011;22447;44.530;18.620;2023-07-13T08:47:39;19.23;;;7.50;;
36415;SDS011;22447;44.530;18.620;2023-07-13T08:50:14;17.92;;;8.05;;
36415;SDS011;22447;44.530;18.620;2023-07-13T08:52:43;14.30;;;6.45;;
36415;SDS011;22447;44.530;18.620;2023-07-13T08:55:14;14.98;;;6.70;;
36415;SDS011;22447;44.530;18.620;2023-07-13T08:57:44;12.25;;;6.45;;
36415;SDS011;22447;44.530;18.620;2023-07-13T09:00:13;15.27;;;6.65;;
36415;SDS011;22447;44.530;18.620;2023-07-13T09:05:38;11.68;;;5.88;;
36415;SDS011;22447;44.530;18.620;2023-07-13T09:13:57;8.50;;;5.43;;
36415;SDS011;22447;44.530;18.620;2023-07-13T09:17:10;17.02;;;5.80;;
36415;SDS011;22447;44.530;18.620;2023-07-13T09:19:43;12.65;;;6.57;;
36415;SDS011;22447;44.530;18.620;2023-07-13T09:22:18;14.50;;;5.53;;
36415;SDS011;22447;44.530;18.620;2023-07-13T09:24:57;10.85;;;5.63;;
36415;SDS011;22447;44.530;18.620;2023-07-13T09:27:31;22.40;;;6.30;;
36415;SDS011;22447;44.530;18.620;2023-07-13T09:30:09;16.55;;;5.60;;
36415;SDS011;22447;44.530;18.620;2023-07-13T09:32:42;9.57;;;5.72;;
36415;SDS011;22447;44.530;18.620;2023-07-13T09:35:16;16.20;;;6.35;;
36415;SDS011;22447;44.530;18.620;2023-07-13T09:37:49;16.63;;;5.75;;
36415;SDS011;22447;44.530;18.620;2023-07-13T09:40:30;13.20;;;5.47;;
36415;SDS011;22447;44.530;18.620;2023-07-13T09:43:05;13.50;;;5.63;;
36415;SDS011;22447;44.530;18.620;2023-07-13T09:45:37;14.80;;;6.60;;
36415;SDS011;22447;44.530;18.620;2023-07-13T09:48:11;10.60;;;5.47;;
36415;SDS011;22447;44.530;18.620;2023-07-13T09:50:40;12.60;;;5.88;;
36415;SDS011;22447;44.530;18.620;2023-07-13T09:53:14;8.68;;;5.45;;
36415;SDS011;22447;44.530;18.620;2023-07-13T09:55:42;12.30;;;5.30;;
36415;SDS011;22447;44.530;18.620;2023-07-13T09:58:15;18.55;;;6.03;;
36415;SDS011;22447;44.530;18.620;2023-07-13T10:01:02;13.63;;;5.78;;
36415;SDS011;22447;44.530;18.620;2023-07-13T10:03:30;10.98;;;5.65;;
36415;SDS011;22447;44.530;18.620;2023-07-13T10:06:20;9.93;;;5.93;;
36415;SDS011;22447;44.530;18.620;2023-07-13T10:08:49;9.80;;;5.28;;
36415;SDS011;22447;44.530;18.620;2023-07-13T10:11:20;7.60;;;5.22;;
36415;SDS011;22447;44.530;18.620;2023-07-13T10:13:52;19.75;;;7.57;;
36415;SDS011;22447;44.530;18.620;2023-07-13T10:16:30;11.48;;;6.07;;
36415;SDS011;22447;44.530;18.620;2023-07-13T10:19:02;18.45;;;6.20;;
36415;SDS011;22447;44.530;18.620;2023-07-13T10:21:33;11.85;;;5.57;;
36415;SDS011;22447;44.530;18.620;2023-07-13T10:24:16;10.90;;;5.10;;
36415;SDS011;22447;44.530;18.620;2023-07-13T10:26:56;10.55;;;5.05;;
36415;SDS011;22447;44.530;18.620;2023-07-13T10:29:39;12.70;;;6.03;;
36415;SDS011;22447;44.530;18.620;2023-07-13T10:32:13;9.77;;;5.63;;
36415;SDS011;22447;44.530;18.620;2023-07-13T10:34:43;12.70;;;5.93;;
36415;SDS011;22447;44.530;18.620;2023-07-13T10:37:16;11.52;;;6.18;;
36415;SDS011;22447;44.530;18.620;2023-07-13T10:39:46;10.68;;;5.30;;
36415;SDS011;22447;44.530;18.620;2023-07-13T10:42:25;13.65;;;5.65;;
36415;SDS011;22447;44.530;18.620;2023-07-13T10:44:51;15.40;;;5.97;;
36415;SDS011;22447;44.530;18.620;2023-07-13T10:47:17;11.93;;;5.55;;
36415;SDS011;22447;44.530;18.620;2023-07-13T10:49:49;10.43;;;5.88;;
36415;SDS011;22447;44.530;18.620;2023-07-13T10:55:37;18.35;;;5.68;;
36415;SDS011;22447;44.530;18.620;2023-07-13T11:00:45;11.80;;;4.90;;
36415;SDS011;22447;44.530;18.620;2023-07-13T11:03:21;11.32;;;5.88;;
36415;SDS011;22447;44.530;18.620;2023-07-13T11:05:49;8.95;;;5.10;;
36415;SDS011;22447;44.530;18.620;2023-07-13T11:08:33;15.98;;;6.32;;
36415;SDS011;22447;44.530;18.620;2023-07-13T11:14:00;12.85;;;5.63;;
36415;SDS011;22447;44.530;18.620;2023-07-13T11:22:15;15.75;;;7.07;;
36415;SDS011;22447;44.530;18.620;2023-07-13T11:25:01;11.35;;;5.78;;
36415;SDS011;22447;44.530;18.620;2023-07-13T11:27:51;13.35;;;7.93;;
36415;SDS011;22447;44.530;18.620;2023-07-13T11:33:09;9.90;;;6.15;;
36415;SDS011;22447;44.530;18.620;2023-07-13T11:35:53;13.68;;;5.25;;
36415;SDS011;22447;44.530;18.620;2023-07-13T11:38:30;11.30;;;5.57;;
36415;SDS011;22447;44.530;18.620;2023-07-13T11:41:07;17.92;;;6.93;;
36415;SDS011;22447;44.530;18.620;2023-07-13T11:43:50;11.07;;;6.32;;
36415;SDS011;22447;44.530;18.620;2023-07-13T11:46:27;16.45;;;7.38;;
36415;SDS011;22447;44.530;18.620;2023-07-13T11:48:53;9.73;;;5.40;;
36415;SDS011;22447;44.530;18.620;2023-07-13T11:51:33;10.27;;;6.03;;
36415;SDS011;22447;44.530;18.620;2023-07-13T11:54:02;15.73;;;6.18;;
36415;SDS011;22447;44.530;18.620;2023-07-13T11:56:32;13.63;;;6.82;;
36415;SDS011;22447;44.530;18.620;2023-07-13T11:59:02;20.65;;;6.80;;
36415;SDS011;22447;44.530;18.620;2023-07-13T12:01:31;10.43;;;6.43;;
36415;SDS011;22447;44.530;18.620;2023-07-13T12:04:01;11.52;;;6.18;;
36415;SDS011;22447;44.530;18.620;2023-07-13T12:06:30;15.85;;;6.95;;
36415;SDS011;22447;44.530;18.620;2023-07-13T12:09:13;22.98;;;7.60;;
36415;SDS011;22447;44.530;18.620;2023-07-13T12:11:43;17.50;;;6.28;;
36415;SDS011;22447;44.530;18.620;2023-07-13T12:14:18;10.55;;;5.57;;
36415;SDS011;22447;44.530;18.620;2023-07-13T12:16:46;20.33;;;6.80;;
36415;SDS011;22447;44.530;18.620;2023-07-13T12:21:45;10.63;;;6.28;;
36415;SDS011;22447;44.530;18.620;2023-07-13T12:24:18;9.65;;;6.15;;
36415;SDS011;22447;44.530;18.620;2023-07-13T12:27:16;12.65;;;6.07;;
36415;SDS011;22447;44.530;18.620;2023-07-13T12:29:48;12.70;;;6.15;;
36415;SDS011;22447;44.530;18.620;2023-07-13T12:32:24;12.45;;;6.63;;
36415;SDS011;22447;44.530;18.620;2023-07-13T12:35:13;11.18;;;6.50;;
36415;SDS011;22447;44.530;18.620;2023-07-13T12:37:43;12.25;;;6.75;;
36415;SDS011;22447;44.530;18.620;2023-07-13T12:40:18;15.75;;;6.07;;
36415;SDS011;22447;44.530;18.620;2023-07-13T12:42:51;13.43;;;7.40;;
36415;SDS011;22447;44.530;18.620;2023-07-13T12:45:27;14.30;;;7.20;;
36415;SDS011;22447;44.530;18.620;2023-07-13T12:47:54;19.65;;;7.07;;
36415;SDS011;22447;44.530;18.620;2023-07-13T12:50:39;15.18;;;7.25;;
36415;SDS011;22447;44.530;18.620;2023-07-13T12:53:12;8.38;;;6.03;;
36415;SDS011;22447;44.530;18.620;2023-07-13T12:55:50;12.38;;;5.82;;
36415;SDS011;22447;44.530;18.620;2023-07-13T12:58:30;14.50;;;6.78;;
36415;SDS011;22447;44.530;18.620;2023-07-13T13:01:01;13.15;;;6.25;;
36415;SDS011;22447;44.530;18.620;2023-07-13T13:06:27;14.20;;;5.85;;
36415;SDS011;22447;44.530;18.620;2023-07-13T13:08:57;18.30;;;5.47;;
36415;SDS011;22447;44.530;18.620;2023-07-13T13:11:25;13.68;;;5.57;;
36415;SDS011;22447;44.530;18.620;2023-07-13T13:13:52;10.98;;;5.82;;
36415;SDS011;22447;44.530;18.620;2023-07-13T13:16:20;12.23;;;5.40;;
36415;SDS011;22447;44.530;18.620;2023-07-13T13:19:13;13.48;;;5.65;;
36415;SDS011;22447;44.530;18.620;2023-07-13T13:21:42;18.65;;;5.50;;
36415;SDS011;22447;44.530;18.620;2023-07-13T13:24:13;11.13;;;5.00;;
36415;SDS011;22447;44.530;18.620;2023-07-13T13:26:45;22.73;;;7.03;;
36415;SDS011;22447;44.530;18.620;2023-07-13T13:29:17;11.55;;;5.05;;
36415;SDS011;22447;44.530;18.620;2023-07-13T13:31:45;11.57;;;5.90;;
36415;SDS011;22447;44.530;18.620;2023-07-13T13:34:12;16.05;;;5.97;;
36415;SDS011;22447;44.530;18.620;2023-07-13T13:36:40;24.25;;;7.57;;
36415;SDS011;22447;44.530;18.620;2023-07-13T13:39:26;16.70;;;6.00;;
36415;SDS011;22447;44.530;18.620;2023-07-13T13:42:01;17.40;;;6.88;;
36415;SDS011;22447;44.530;18.620;2023-07-13T13:44:27;11.15;;;5.85;;
36415;SDS011;22447;44.530;18.620;2023-07-13T13:46:53;16.75;;;6.05;;
36415;SDS011;22447;44.530;18.620;2023-07-13T13:49:22;24.02;;;7.22;;
36415;SDS011;22447;44.530;18.620;2023-07-13T13:51:50;15.45;;;6.43;;
36415;SDS011;22447;44.530;18.620;2023-07-13T13:54:17;14.70;;;6.55;;
36415;SDS011;22447;44.530;18.620;2023-07-13T13:56:45;14.90;;;6.43;;
36415;SDS011;22447;44.530;18.620;2023-07-13T13:59:12;11.60;;;5.80;;
36415;SDS011;22447;44.530;18.620;2023-07-13T14:01:39;17.30;;;6.95;;
36415;SDS011;22447;44.530;18.620;2023-07-13T14:04:08;15.80;;;5.30;;
36415;SDS011;22447;44.530;18.620;2023-07-13T14:06:46;18.88;;;6.63;;
36415;SDS011;22447;44.530;18.620;2023-07-13T14:09:13;24.40;;;6.50;;
36415;SDS011;22447;44.530;18.620;2023-07-13T14:11:40;14.98;;;6.00;;
36415;SDS011;22447;44.530;18.620;2023-07-13T14:14:09;11.85;;;5.78;;
36415;SDS011;22447;44.530;18.620;2023-07-13T14:16:41;14.73;;;6.45;;
36415;SDS011;22447;44.530;18.620;2023-07-13T14:19:10;11.40;;;5.85;;
36415;SDS011;22447;44.530;18.620;2023-07-13T14:21:39;14.90;;;6.57;;
36415;SDS011;22447;44.530;18.620;2023-07-13T14:24:05;11.95;;;5.07;;
36415;SDS011;22447;44.530;18.620;2023-07-13T14:26:32;15.88;;;5.70;;
36415;SDS011;22447;44.530;18.620;2023-07-13T14:29:04;15.85;;;7.68;;
36415;SDS011;22447;44.530;18.620;2023-07-13T14:31:37;10.38;;;6.32;;
36415;SDS011;22447;44.530;18.620;2023-07-13T14:34:03;11.55;;;6.10;;
36415;SDS011;22447;44.530;18.620;2023-07-13T14:36:33;11.65;;;6.85;;
36415;SDS011;22447;44.530;18.620;2023-07-13T14:39:19;13.90;;;6.40;;
36415;SDS011;22447;44.530;18.620;2023-07-13T14:41:49;10.07;;;5.50;;
36415;SDS011;22447;44.530;18.620;2023-07-13T14:44:17;14.23;;;6.50;;
36415;SDS011;22447;44.530;18.620;2023-07-13T14:46:45;16.70;;;7.65;;
36415;SDS011;22447;44.530;18.620;2023-07-13T14:52:02;14.82;;;7.63;;
36415;SDS011;22447;44.530;18.620;2023-07-13T14:54:36;16.33;;;6.88;;
36415;SDS011;22447;44.530;18.620;2023-07-13T14:57:08;13.25;;;7.22;;
36415;SDS011;22447;44.530;18.620;2023-07-13T14:59:38;14.73;;;6.90;;
36415;SDS011;22447;44.530;18.620;2023-07-13T15:02:13;12.77;;;6.97;;
36415;SDS011;22447;44.530;18.620;2023-07-13T15:04:52;10.10;;;6.45;;
36415;SDS011;22447;44.530;18.620;2023-07-13T15:07:19;11.40;;;6.38;;
36415;SDS011;22447;44.530;18.620;2023-07-13T15:09:46;14.25;;;7.03;;